Time;durP1;ratioP1;P1;durP2;ratioP2;P2;SDS_P1;SDS_P2;PMS_P1;PMS_P2;Temp;Humidity;BMP_temperature;BMP_pressure;BME280_temperature;BME280_humidity;BME280_pressure;Samples;Min_cycle;Max_cycle;Signal;HPM_P1;HPM_P2
2021/12/19 00:00:28;;;;;;;2.63;0.82;;;;;;;;;;5087595;28;20120;-74
2021/12/19 00:08:49;;;;;;;3.15;0.98;;;;;;;;;;5091501;28;20055;-73
2021/12/19 00:11:17;;;;;;;2.60;0.60;;;;;;;;;;5091110;28;20066;-73
2021/12/19 00:13:43;;;;;;;2.45;0.88;;;;;;;;;;5091564;28;20522;-73
2021/12/19 00:16:10;;;;;;;2.75;0.93;;;;;;;;;;5091085;28;20036;-74
2021/12/19 00:18:36;;;;;;;2.60;0.88;;;;;;;;;;5091311;28;20105;-74
2021/12/19 00:21:02;;;;;;;8.10;1.20;;;;;;;;;;5091323;28;20040;-74
2021/12/19 00:23:28;;;;;;;3.58;1.23;;;;;;;;;;5091202;28;20074;-74
2021/12/19 00:25:54;;;;;;;3.03;0.90;;;;;;;;;;5073113;28;20043;-74
2021/12/19 00:28:20;;;;;;;1.35;0.70;;;;;;;;;;5090681;28;20165;-74
2021/12/19 00:30:46;;;;;;;3.45;1.00;;;;;;;;;;5091192;28;20040;-74
2021/12/19 00:33:12;;;;;;;7.72;1.20;;;;;;;;;;5091770;28;20490;-74
2021/12/19 00:35:39;;;;;;;3.30;1.10;;;;;;;;;;5091648;28;20425;-74
2021/12/19 00:38:05;;;;;;;2.42;0.82;;;;;;;;;;5091419;28;20577;-74
2021/12/19 00:40:34;;;;;;;3.17;1.10;;;;;;;;;;5090043;28;20107;-74
2021/12/19 00:43:10;;;;;;;4.15;1.10;;;;;;;;;;5091391;28;20062;-74
2021/12/19 00:45:39;;;;;;;4.63;0.88;;;;;;;;;;5091496;28;20105;-74
2021/12/19 00:48:06;;;;;;;2.42;0.95;;;;;;;;;;5090188;28;20052;-74
2021/12/19 00:50:33;;;;;;;1.35;0.63;;;;;;;;;;5091363;28;20051;-74
2021/12/19 00:53:00;;;;;;;3.08;0.98;;;;;;;;;;5089468;28;20044;-75
2021/12/19 00:55:27;;;;;;;1.88;0.73;;;;;;;;;;5091197;28;20102;-75
2021/12/19 00:57:54;;;;;;;8.10;1.00;;;;;;;;;;5091538;28;20047;-76
2021/12/19 01:00:22;;;;;;;3.35;0.95;;;;;;;;;;5091196;28;20410;-76
2021/12/19 01:02:54;;;;;;;4.20;0.88;;;;;;;;;;5091034;28;20044;-76
2021/12/19 01:05:20;;;;;;;5.72;0.90;;;;;;;;;;5089627;28;20055;-76
2021/12/19 01:07:46;;;;;;;1.67;0.77;;;;;;;;;;5091039;28;20055;-76
2021/12/19 01:10:12;;;;;;;3.45;0.85;;;;;;;;;;5089385;28;20521;-76
2021/12/19 01:12:38;;;;;;;2.22;0.68;;;;;;;;;;5091055;28;20048;-77
2021/12/19 01:15:10;;;;;;;9.40;1.00;;;;;;;;;;5089762;28;20347;-76
2021/12/19 01:17:36;;;;;;;6.20;0.98;;;;;;;;;;5089996;28;20044;-76
2021/12/19 01:20:03;;;;;;;8.13;1.15;;;;;;;;;;5090212;28;20102;-76
2021/12/19 01:22:29;;;;;;;6.07;1.02;;;;;;;;;;5089443;28;20085;-74
2021/12/19 01:24:55;;;;;;;7.40;0.70;;;;;;;;;;5090499;28;20036;-74
2021/12/19 01:27:22;;;;;;;4.13;0.90;;;;;;;;;;5089816;28;20052;-74
2021/12/19 01:29:48;;;;;;;2.85;0.80;;;;;;;;;;5090433;28;20055;-74
2021/12/19 01:32:14;;;;;;;2.70;0.85;;;;;;;;;;5089204;28;20122;-74
2021/12/19 01:34:40;;;;;;;3.25;0.80;;;;;;;;;;5090355;28;20830;-75
2021/12/19 01:37:06;;;;;;;2.85;0.70;;;;;;;;;;5088478;28;20127;-75
2021/12/19 01:39:32;;;;;;;2.97;0.90;;;;;;;;;;5090168;28;20044;-75
2021/12/19 01:41:59;;;;;;;3.10;0.70;;;;;;;;;;5090496;28;20048;-75
2021/12/19 01:44:25;;;;;;;6.30;1.13;;;;;;;;;;5088659;28;20135;-76
2021/12/19 01:46:51;;;;;;;6.95;0.90;;;;;;;;;;5090197;28;20412;-76
2021/12/19 01:49:18;;;;;;;4.22;1.20;;;;;;;;;;5089964;28;20545;-75
2021/12/19 01:51:45;;;;;;;6.63;0.90;;;;;;;;;;5090182;28;20044;-75
2021/12/19 01:54:11;;;;;;;6.15;1.23;;;;;;;;;;5090551;28;20061;-76
2021/12/19 01:56:38;;;;;;;9.50;1.05;;;;;;;;;;5089905;28;20044;-76
2021/12/19 01:59:06;;;;;;;6.15;0.90;;;;;;;;;;5090330;28;20060;-74
2021/12/19 02:01:40;;;;;;;3.10;0.73;;;;;;;;;;5090085;28;20074;-74
2021/12/19 02:04:06;;;;;;;4.40;0.70;;;;;;;;;;5089922;28;20127;-74
2021/12/19 02:06:33;;;;;;;5.47;0.88;;;;;;;;;;5088303;28;20062;-74
2021/12/19 02:09:05;;;;;;;5.03;0.80;;;;;;;;;;5090261;28;20494;-74
2021/12/19 02:11:32;;;;;;;6.13;0.90;;;;;;;;;;5090009;28;20063;-74
2021/12/19 02:13:59;;;;;;;5.85;0.82;;;;;;;;;;5088792;28;20051;-74
2021/12/19 02:16:25;;;;;;;2.03;0.70;;;;;;;;;;5089326;28;20052;-74
2021/12/19 02:18:51;;;;;;;4.72;1.00;;;;;;;;;;5089705;28;20052;-74
2021/12/19 02:21:17;;;;;;;3.33;0.82;;;;;;;;;;5089876;28;20517;-74
2021/12/19 02:23:43;;;;;;;2.22;0.70;;;;;;;;;;5089734;28;20040;-75
2021/12/19 02:26:09;;;;;;;3.65;0.70;;;;;;;;;;5089482;28;20055;-75
2021/12/19 02:28:36;;;;;;;4.65;0.82;;;;;;;;;;5089811;28;20044;-75
2021/12/19 02:31:02;;;;;;;1.98;0.60;;;;;;;;;;5089306;28;20494;-75
2021/12/19 02:33:31;;;;;;;3.40;0.75;;;;;;;;;;5088568;28;20044;-75
2021/12/19 02:36:29;;;;;;;2.72;0.70;;;;;;;;;;5089612;28;20380;-75
2021/12/19 02:49:20;;;;;;;5.45;0.70;;;;;;;;;;5089277;28;20062;-77
2021/12/19 02:51:47;;;;;;;1.90;0.63;;;;;;;;;;5089311;28;20123;-77
2021/12/19 02:54:13;;;;;;;2.92;1.02;;;;;;;;;;5089353;28;20090;-77
2021/12/19 02:56:39;;;;;;;5.13;1.33;;;;;;;;;;5088995;28;20047;-77
2021/12/19 02:59:05;;;;;;;2.80;0.63;;;;;;;;;;5089639;28;20139;-77
2021/12/19 03:01:31;;;;;;;3.30;1.00;;;;;;;;;;5088326;28;20478;-77
2021/12/19 03:03:57;;;;;;;5.65;0.93;;;;;;;;;;5088873;28;20048;-77
2021/12/19 03:06:23;;;;;;;2.30;0.70;;;;;;;;;;5088928;28;20396;-77
2021/12/19 03:08:51;;;;;;;1.83;0.50;;;;;;;;;;5088596;28;20047;-77
2021/12/19 03:19:14;;;;;;;3.15;0.63;;;;;;;;;;5088553;28;20102;-76
2021/12/19 03:21:41;;;;;;;1.95;0.65;;;;;;;;;;5087358;28;20051;-76
2021/12/19 03:24:07;;;;;;;5.15;0.93;;;;;;;;;;5088177;28;20047;-76
2021/12/19 03:26:34;;;;;;;1.73;0.40;;;;;;;;;;5088416;28;20262;-76
2021/12/19 03:28:59;;;;;;;1.50;0.47;;;;;;;;;;5088450;28;20139;-76
2021/12/19 03:31:26;;;;;;;1.05;0.45;;;;;;;;;;5088457;28;20119;-76
2021/12/19 03:33:52;;;;;;;2.47;0.55;;;;;;;;;;5088440;28;20036;-76
2021/12/19 03:36:18;;;;;;;1.52;0.70;;;;;;;;;;5070197;28;20040;-76
2021/12/19 03:38:45;;;;;;;3.03;0.40;;;;;;;;;;5087937;28;20139;-76
2021/12/19 03:43:43;;;;;;;1.30;0.50;;;;;;;;;;5092038;28;20052;-75
2021/12/19 03:46:09;;;;;;;1.77;0.50;;;;;;;;;;5092289;28;20047;-75
2021/12/19 03:48:35;;;;;;;1.02;0.52;;;;;;;;;;5091902;28;20040;-77
2021/12/19 03:51:01;;;;;;;7.35;0.75;;;;;;;;;;5091830;28;20413;-77
2021/12/19 03:53:27;;;;;;;6.22;0.65;;;;;;;;;;5092101;28;20047;-76
2021/12/19 03:55:53;;;;;;;6.82;0.80;;;;;;;;;;5092004;28;21167;-76
2021/12/19 03:58:20;;;;;;;2.00;0.50;;;;;;;;;;5091686;28;20418;-76
2021/12/19 04:00:47;;;;;;;8.60;1.38;;;;;;;;;;5091766;28;20044;-76
2021/12/19 04:03:19;;;;;;;2.20;0.52;;;;;;;;;;5090386;28;20044;-76
2021/12/19 04:05:46;;;;;;;5.10;0.82;;;;;;;;;;5091817;28;20117;-76
2021/12/19 04:08:13;;;;;;;3.35;0.60;;;;;;;;;;5091582;28;20043;-76
2021/12/19 04:10:39;;;;;;;3.78;0.50;;;;;;;;;;5089556;28;20085;-75
2021/12/19 04:13:06;;;;;;;2.38;0.70;;;;;;;;;;5091185;28;20048;-75
2021/12/19 04:15:32;;;;;;;5.10;0.77;;;;;;;;;;5090233;28;20454;-75
2021/12/19 04:17:58;;;;;;;3.92;0.75;;;;;;;;;;5091413;28;20501;-75
2021/12/19 04:20:24;;;;;;;1.52;0.55;;;;;;;;;;5091352;28;20468;-75
2021/12/19 04:22:50;;;;;;;3.03;0.30;;;;;;;;;;5091209;28;20087;-76
2021/12/19 04:25:17;;;;;;;1.42;0.60;;;;;;;;;;5090897;28;20036;-76
2021/12/19 04:27:44;;;;;;;4.07;0.68;;;;;;;;;;5091503;28;21144;-76
2021/12/19 04:30:11;;;;;;;1.92;0.52;;;;;;;;;;5091025;28;20048;-76
2021/12/19 04:32:43;;;;;;;3.55;0.50;;;;;;;;;;5091019;28;20400;-76
2021/12/19 04:35:10;;;;;;;1.38;0.45;;;;;;;;;;5091210;28;20475;-76
2021/12/19 04:40:25;;;;;;;5.03;0.50;;;;;;;;;;5090628;28;20836;-76
2021/12/19 05:04:37;;;;;;;1.10;0.40;;;;;;;;;;5090724;28;20052;-75
2021/12/19 05:15:15;;;;;;;3.25;0.88;;;;;;;;;;5088864;28;20066;-76
2021/12/19 05:17:41;;;;;;;3.35;0.63;;;;;;;;;;5090135;28;20501;-76
2021/12/19 05:22:38;;;;;;;0.93;0.55;;;;;;;;;;5090172;28;20048;-76
2021/12/19 05:25:14;;;;;;;1.25;0.50;;;;;;;;;;5089718;28;20418;-76
2021/12/19 05:27:44;;;;;;;1.58;0.73;;;;;;;;;;5090210;28;20056;-75
2021/12/19 05:30:10;;;;;;;3.97;0.60;;;;;;;;;;5088851;28;20113;-76
2021/12/19 05:32:36;;;;;;;2.20;0.40;;;;;;;;;;5088768;28;20043;-76
2021/12/19 05:35:02;;;;;;;1.73;0.60;;;;;;;;;;5090205;28;20424;-76
2021/12/19 05:45:42;;;;;;;2.10;0.70;;;;;;;;;;5089652;28;20129;-76
2021/12/19 05:48:08;;;;;;;3.83;0.60;;;;;;;;;;5089708;28;20481;-76
2021/12/19 05:50:37;;;;;;;1.77;0.50;;;;;;;;;;5071633;28;20083;-76
2021/12/19 05:53:03;;;;;;;1.00;0.60;;;;;;;;;;5089372;28;20468;-76
2021/12/19 05:55:29;;;;;;;0.88;0.60;;;;;;;;;;5089603;28;20409;-76
2021/12/19 05:57:56;;;;;;;1.48;0.55;;;;;;;;;;5089740;28;20375;-76
2021/12/19 06:00:22;;;;;;;1.77;0.50;;;;;;;;;;5089843;28;20048;-76
2021/12/19 06:02:48;;;;;;;1.95;0.70;;;;;;;;;;5089346;28;20468;-76
2021/12/19 06:05:14;;;;;;;1.38;0.60;;;;;;;;;;5088104;28;20063;-76
2021/12/19 06:07:41;;;;;;;2.17;0.70;;;;;;;;;;5089040;28;20059;-76
2021/12/19 06:10:08;;;;;;;2.92;0.60;;;;;;;;;;5088819;28;20044;-76
2021/12/19 06:12:34;;;;;;;3.35;0.65;;;;;;;;;;5089228;28;20055;-76
2021/12/19 06:15:01;;;;;;;6.22;0.80;;;;;;;;;;5089723;28;20044;-76
2021/12/19 06:17:27;;;;;;;1.83;0.60;;;;;;;;;;5089096;28;20556;-77
2021/12/19 06:19:53;;;;;;;3.58;0.75;;;;;;;;;;5088026;28;20485;-77
2021/12/19 06:22:19;;;;;;;5.18;0.80;;;;;;;;;;5088797;28;20542;-77
2021/12/19 06:24:45;;;;;;;1.55;0.52;;;;;;;;;;5088940;28;20410;-77
2021/12/19 06:27:11;;;;;;;3.22;0.95;;;;;;;;;;5089208;28;20476;-77
2021/12/19 06:29:37;;;;;;;2.95;0.80;;;;;;;;;;5088098;28;20052;-77
2021/12/19 06:32:03;;;;;;;4.20;0.90;;;;;;;;;;5088911;28;20468;-77
2021/12/19 06:34:29;;;;;;;2.55;0.70;;;;;;;;;;5088807;28;20086;-77
2021/12/19 06:36:55;;;;;;;5.97;0.82;;;;;;;;;;5089080;28;20090;-77
2021/12/19 06:39:22;;;;;;;2.78;0.90;;;;;;;;;;5087581;28;20063;-77
2021/12/19 06:41:49;;;;;;;2.03;0.63;;;;;;;;;;5087191;28;20056;-76
2021/12/19 06:44:15;;;;;;;2.30;0.70;;;;;;;;;;5088519;28;20413;-76
2021/12/19 06:46:41;;;;;;;1.73;0.95;;;;;;;;;;5088394;28;20413;-76
2021/12/19 06:49:07;;;;;;;3.40;0.80;;;;;;;;;;5089731;28;20395;-76
2021/12/19 06:51:34;;;;;;;4.75;0.70;;;;;;;;;;5088275;28;20075;-76
2021/12/19 06:54:00;;;;;;;8.50;0.70;;;;;;;;;;5087948;28;20055;-76
2021/12/19 06:56:26;;;;;;;3.40;1.00;;;;;;;;;;5087637;28;20100;-76
2021/12/19 06:58:52;;;;;;;3.25;0.68;;;;;;;;;;5088937;28;20048;-75
2021/12/19 07:01:18;;;;;;;1.88;0.88;;;;;;;;;;5089510;28;20456;-76
2021/12/19 07:03:44;;;;;;;2.78;0.70;;;;;;;;;;5087769;28;20131;-76
2021/12/19 07:06:10;;;;;;;14.10;1.75;;;;;;;;;;5088160;28;20316;-76
2021/12/19 07:08:36;;;;;;;2.55;0.80;;;;;;;;;;5089255;28;20086;-76
2021/12/19 07:11:02;;;;;;;12.32;1.10;;;;;;;;;;5088981;28;20051;-76
2021/12/19 07:13:29;;;;;;;3.42;1.00;;;;;;;;;;5088785;28;20078;-76
2021/12/19 07:15:56;;;;;;;2.10;0.70;;;;;;;;;;5090707;28;20051;-76
2021/12/19 07:18:23;;;;;;;2.60;0.85;;;;;;;;;;5092725;28;20409;-76
2021/12/19 07:20:49;;;;;;;4.32;0.85;;;;;;;;;;5091787;28;20052;-74
2021/12/19 07:23:16;;;;;;;3.58;0.70;;;;;;;;;;5093259;28;20177;-75
2021/12/19 07:25:43;;;;;;;3.28;0.85;;;;;;;;;;5089786;28;20541;-76
2021/12/19 07:28:09;;;;;;;4.32;0.60;;;;;;;;;;5092073;28;20444;-76
2021/12/19 07:30:36;;;;;;;3.88;0.80;;;;;;;;;;5074981;28;20073;-77
2021/12/19 07:33:03;;;;;;;6.28;1.00;;;;;;;;;;5093141;28;20044;-79
2021/12/19 07:35:35;;;;;;;1.90;0.65;;;;;;;;;;5092086;28;20498;-80
2021/12/19 07:38:03;;;;;;;2.88;0.77;;;;;;;;;;5092468;28;20128;-76
2021/12/19 07:40:35;;;;;;;5.15;1.00;;;;;;;;;;5092687;28;20058;-76
2021/12/19 07:43:03;;;;;;;2.80;0.85;;;;;;;;;;5092243;28;20421;-77
2021/12/19 07:45:29;;;;;;;8.80;1.65;;;;;;;;;;5092879;28;20122;-81
2021/12/19 07:47:55;;;;;;;10.98;1.08;;;;;;;;;;5093220;28;20123;-76
2021/12/19 07:50:22;;;;;;;5.88;1.33;;;;;;;;;;5090878;28;20044;-78
2021/12/19 07:52:48;;;;;;;8.70;1.00;;;;;;;;;;5092705;28;20084;-81
2021/12/19 07:55:14;;;;;;;13.15;1.33;;;;;;;;;;5092669;28;20051;-78
2021/12/19 07:57:41;;;;;;;4.63;1.55;;;;;;;;;;5092258;28;20131;-78
2021/12/19 08:00:08;;;;;;;7.45;0.95;;;;;;;;;;5091059;28;20105;-78
2021/12/19 08:02:34;;;;;;;9.07;1.00;;;;;;;;;;5074331;28;20506;-78
2021/12/19 08:05:01;;;;;;;7.00;1.23;;;;;;;;;;5092442;28;20066;-78
2021/12/19 08:07:27;;;;;;;3.03;1.00;;;;;;;;;;5091036;28;20036;-74
2021/12/19 08:10:14;;;;;;;9.18;0.88;;;;;;;;;;5092276;28;20083;-81
2021/12/19 08:12:41;;;;;;;7.90;1.00;;;;;;;;;;5090574;28;20043;-78
2021/12/19 08:15:08;;;;;;;4.50;1.10;;;;;;;;;;5089887;28;20044;-78
2021/12/19 08:17:34;;;;;;;7.30;1.55;;;;;;;;;;5089620;28;20493;-77
2021/12/19 08:20:01;;;;;;;4.30;0.95;;;;;;;;;;5091041;28;20409;-77
2021/12/19 08:22:29;;;;;;;6.05;1.70;;;;;;;;;;5090442;28;20131;-76
2021/12/19 08:24:57;;;;;;;7.63;1.00;;;;;;;;;;5088430;28;20066;-76
2021/12/19 08:27:24;;;;;;;4.72;1.13;;;;;;;;;;5089475;28;20055;-76
2021/12/19 08:29:51;;;;;;;5.90;1.00;;;;;;;;;;5088912;28;20528;-76
2021/12/19 08:32:17;;;;;;;4.60;1.00;;;;;;;;;;5090094;28;20048;-76
2021/12/19 08:34:43;;;;;;;3.95;1.30;;;;;;;;;;5072204;28;20601;-77
2021/12/19 08:37:09;;;;;;;6.07;1.25;;;;;;;;;;5089861;28;20105;-77
2021/12/19 08:39:37;;;;;;;7.28;1.33;;;;;;;;;;5089176;28;20044;-77
2021/12/19 08:42:03;;;;;;;5.65;1.17;;;;;;;;;;5072885;28;20498;-76
2021/12/19 08:44:29;;;;;;;4.07;0.98;;;;;;;;;;5090895;28;20047;-75
2021/12/19 08:46:56;;;;;;;3.92;0.90;;;;;;;;;;5090633;28;20044;-75
2021/12/19 08:49:22;;;;;;;4.28;1.10;;;;;;;;;;5090389;28;20051;-78
2021/12/19 08:51:48;;;;;;;3.78;0.85;;;;;;;;;;5089403;28;20052;-77
2021/12/19 08:54:14;;;;;;;3.58;0.88;;;;;;;;;;5090580;28;20185;-77
2021/12/19 08:56:40;;;;;;;2.88;1.00;;;;;;;;;;5088844;28;20043;-76
2021/12/19 08:59:06;;;;;;;6.00;1.20;;;;;;;;;;5090813;28;20511;-78
2021/12/19 09:01:32;;;;;;;2.38;0.80;;;;;;;;;;5090369;28;20387;-76
2021/12/19 09:03:59;;;;;;;2.88;0.95;;;;;;;;;;5089145;28;20047;-76
2021/12/19 09:06:25;;;;;;;4.00;1.70;;;;;;;;;;5088705;28;20040;-76
2021/12/19 09:08:51;;;;;;;4.97;1.38;;;;;;;;;;5089088;28;20140;-76
2021/12/19 09:11:17;;;;;;;4.30;1.20;;;;;;;;;;5051196;28;1096077;-77
2021/12/19 09:13:43;;;;;;;3.28;1.10;;;;;;;;;;5091041;28;20055;-77
2021/12/19 09:16:09;;;;;;;3.00;1.20;;;;;;;;;;5091230;28;20040;-75
2021/12/19 09:18:35;;;;;;;3.88;0.82;;;;;;;;;;5090756;28;20052;-75
2021/12/19 09:21:01;;;;;;;16.40;1.75;;;;;;;;;;5090856;28;20496;-75
2021/12/19 09:23:28;;;;;;;5.22;1.80;;;;;;;;;;5089821;28;20482;-75
2021/12/19 09:25:54;;;;;;;4.80;1.42;;;;;;;;;;5090788;28;20048;-76
2021/12/19 09:28:20;;;;;;;5.40;1.17;;;;;;;;;;5072469;28;20096;-76
2021/12/19 09:30:46;;;;;;;2.35;0.85;;;;;;;;;;5091008;28;20039;-77
2021/12/19 09:33:12;;;;;;;2.72;0.80;;;;;;;;;;5091020;28;20048;-78
2021/12/19 09:35:38;;;;;;;6.32;1.00;;;;;;;;;;5089134;28;20044;-76
2021/12/19 09:38:05;;;;;;;2.55;0.85;;;;;;;;;;5072036;28;20120;-75
2021/12/19 09:40:37;;;;;;;5.22;1.10;;;;;;;;;;5089946;28;20127;-77
2021/12/19 09:43:05;;;;;;;4.22;1.00;;;;;;;;;;5088828;28;20077;-79
2021/12/19 09:45:32;;;;;;;2.35;0.82;;;;;;;;;;5090711;28;20489;-76
2021/12/19 09:47:59;;;;;;;3.85;0.88;;;;;;;;;;5090025;28;20067;-77
2021/12/19 09:50:25;;;;;;;3.50;1.00;;;;;;;;;;5088264;28;20047;-77
2021/12/19 09:52:51;;;;;;;4.35;1.10;;;;;;;;;;5071838;28;20044;-79
2021/12/19 09:55:21;;;;;;;3.63;1.15;;;;;;;;;;5072191;28;20037;-78
2021/12/19 09:57:47;;;;;;;3.17;1.15;;;;;;;;;;5088161;28;20048;-76
2021/12/19 10:00:14;;;;;;;5.22;1.10;;;;;;;;;;5088937;28;20145;-76
2021/12/19 10:02:40;;;;;;;4.07;1.50;;;;;;;;;;5088463;28;20046;-75
2021/12/19 10:05:18;;;;;;;3.42;1.25;;;;;;;;;;5088031;28;20127;-78
2021/12/19 10:07:48;;;;;;;5.65;1.63;;;;;;;;;;5087868;28;20129;-76
2021/12/19 10:10:24;;;;;;;3.88;1.48;;;;;;;;;;5088750;28;20044;-76
2021/12/19 10:12:52;;;;;;;4.28;1.50;;;;;;;;;;5088358;28;20062;-77
2021/12/19 10:15:38;;;;;;;2.63;1.17;;;;;;;;;;5088359;28;20111;-77
2021/12/19 10:18:08;;;;;;;2.65;1.25;;;;;;;;;;5088654;28;20477;-79
2021/12/19 10:20:41;;;;;;;4.30;1.42;;;;;;;;;;5089354;28;20426;-76
2021/12/19 10:23:12;;;;;;;4.20;1.55;;;;;;;;;;5088233;28;20551;-76
2021/12/19 10:25:38;;;;;;;3.83;1.58;;;;;;;;;;5088699;28;20042;-80
2021/12/19 10:28:06;;;;;;;3.53;1.73;;;;;;;;;;5089360;28;20401;-78
2021/12/19 10:30:35;;;;;;;4.45;1.77;;;;;;;;;;5089489;28;20177;-76
2021/12/19 10:33:02;;;;;;;3.40;1.50;;;;;;;;;;5088850;28;20044;-77
2021/12/19 10:35:30;;;;;;;3.00;1.48;;;;;;;;;;5087897;28;20052;-75
2021/12/19 10:37:57;;;;;;;3.88;1.50;;;;;;;;;;5087921;28;20354;-75
2021/12/19 10:40:23;;;;;;;3.33;1.35;;;;;;;;;;5084457;28;20044;-75
2021/12/19 10:43:00;;;;;;;2.33;1.17;;;;;;;;;;5070859;28;20075;-75
2021/12/19 10:45:32;;;;;;;5.25;2.05;;;;;;;;;;5088130;28;20126;-74
2021/12/19 10:48:15;;;;;;;3.88;1.35;;;;;;;;;;5089108;28;20047;-76
2021/12/19 10:50:49;;;;;;;3.85;1.50;;;;;;;;;;5089902;28;20036;-76
2021/12/19 10:53:16;;;;;;;3.85;1.63;;;;;;;;;;5089039;28;20044;-75
2021/12/19 10:55:47;;;;;;;4.78;1.77;;;;;;;;;;5088927;28;20048;-75
2021/12/19 10:58:24;;;;;;;5.30;1.60;;;;;;;;;;5089407;28;20048;-76
2021/12/19 11:01:03;;;;;;;4.13;1.85;;;;;;;;;;5088672;28;20063;-76
2021/12/19 11:03:50;;;;;;;5.57;1.80;;;;;;;;;;5071704;28;20482;-76
2021/12/19 11:06:32;;;;;;;3.63;1.77;;;;;;;;;;5089635;28;20140;-76
2021/12/19 11:08:59;;;;;;;5.18;1.75;;;;;;;;;;5089155;28;20093;-77
2021/12/19 11:11:49;;;;;;;4.47;1.60;;;;;;;;;;5088867;28;20106;-75
2021/12/19 11:14:17;;;;;;;4.88;1.77;;;;;;;;;;5065533;28;20052;-76
2021/12/19 11:16:43;;;;;;;3.72;1.83;;;;;;;;;;5087962;28;20044;-75
2021/12/19 11:19:10;;;;;;;4.82;2.08;;;;;;;;;;5088517;28;20399;-75
2021/12/19 11:21:37;;;;;;;7.63;2.40;;;;;;;;;;5089247;28;20065;-77
2021/12/19 11:24:09;;;;;;;4.47;2.60;;;;;;;;;;5089129;28;20044;-75
2021/12/19 11:26:37;;;;;;;7.47;2.72;;;;;;;;;;5088507;28;20444;-77
2021/12/19 11:29:04;;;;;;;5.93;2.90;;;;;;;;;;5089368;28;20084;-75
2021/12/19 11:31:31;;;;;;;5.47;2.67;;;;;;;;;;5089181;28;20047;-76
2021/12/19 11:34:09;;;;;;;5.72;2.70;;;;;;;;;;5088653;28;20080;-77
2021/12/19 11:36:38;;;;;;;6.55;2.60;;;;;;;;;;5089009;28;20409;-77
2021/12/19 11:39:05;;;;;;;6.40;3.00;;;;;;;;;;5071256;28;20040;-78
2021/12/19 11:41:31;;;;;;;7.32;3.05;;;;;;;;;;5088789;28;20123;-75
2021/12/19 11:44:02;;;;;;;5.03;2.42;;;;;;;;;;5061535;28;20048;-77
2021/12/19 11:46:54;;;;;;;7.35;2.92;;;;;;;;;;5089051;28;20127;-78
2021/12/19 11:49:24;;;;;;;4.90;2.50;;;;;;;;;;5087573;28;20044;-78
2021/12/19 11:52:10;;;;;;;5.57;2.25;;;;;;;;;;5088607;28;20048;-78
2021/12/19 11:54:36;;;;;;;6.97;2.75;;;;;;;;;;5088158;28;20040;-76
2021/12/19 11:57:07;;;;;;;5.82;2.30;;;;;;;;;;5088555;28;20097;-75
2021/12/19 11:59:34;;;;;;;9.18;3.00;;;;;;;;;;5087306;28;20875;-77
2021/12/19 12:02:19;;;;;;;7.35;2.13;;;;;;;;;;5072479;28;20588;-76
2021/12/19 12:04:45;;;;;;;6.28;2.40;;;;;;;;;;5092354;28;20055;-76
2021/12/19 12:07:11;;;;;;;5.97;2.60;;;;;;;;;;5092495;28;20502;-75
2021/12/19 12:09:40;;;;;;;5.43;2.15;;;;;;;;;;5092501;28;20113;-76
2021/12/19 12:12:08;;;;;;;;;;;;;;;;;;5092161;28;20314;-76
2021/12/19 12:14:38;;;;;;;7.88;2.03;;;;;;;;;;5085223;28;19930;-76
2021/12/19 12:17:08;;;;;;;6.13;2.28;;;;;;;;;;5072528;28;20537;-76
2021/12/19 12:19:41;;;;;;;6.38;2.38;;;;;;;;;;5071860;28;20056;-76
2021/12/19 12:22:29;;;;;;;5.78;2.50;;;;;;;;;;5079880;28;20056;-75
2021/12/19 12:25:09;;;;;;;4.70;1.85;;;;;;;;;;5092157;28;20052;-76
2021/12/19 12:27:40;;;;;;;5.57;2.33;;;;;;;;;;5092014;28;20464;-76
2021/12/19 12:30:08;;;;;;;5.15;2.22;;;;;;;;;;5091123;28;20051;-76
2021/12/19 12:32:34;;;;;;;5.90;2.15;;;;;;;;;;5091195;28;20055;-76
2021/12/19 12:35:00;;;;;;;5.88;2.00;;;;;;;;;;5091867;28;20144;-76
2021/12/19 12:37:27;;;;;;;5.15;2.42;;;;;;;;;;5091223;28;20074;-76
2021/12/19 12:40:17;;;;;;;5.97;1.95;;;;;;;;;;5091099;28;20055;-77
2021/12/19 12:42:57;;;;;;;4.95;1.95;;;;;;;;;;5090629;28;20051;-77
2021/12/19 12:45:23;;;;;;;4.22;1.70;;;;;;;;;;5090609;28;20052;-78
2021/12/19 12:47:49;;;;;;;6.30;2.03;;;;;;;;;;5089779;28;20067;-75
2021/12/19 12:50:15;;;;;;;6.07;2.15;;;;;;;;;;5090867;28;20047;-75
2021/12/19 12:52:41;;;;;;;6.38;2.25;;;;;;;;;;5086550;28;20106;-74
2021/12/19 12:55:08;;;;;;;5.80;1.90;;;;;;;;;;5089945;28;20375;-75
2021/12/19 12:57:36;;;;;;;3.67;1.92;;;;;;;;;;5090564;28;20097;-76
2021/12/19 13:00:03;;;;;;;4.72;1.85;;;;;;;;;;5089129;28;20070;-76
2021/12/19 13:02:41;;;;;;;8.15;2.17;;;;;;;;;;5090820;28;20079;-74
2021/12/19 13:05:10;;;;;;;7.80;2.10;;;;;;;;;;5090642;28;20043;-74
2021/12/19 13:07:36;;;;;;;;;;;;;;;;;;5091142;28;20071;-74
2021/12/19 13:10:03;;;;;;;6.15;1.80;;;;;;;;;;5090450;28;19974;-74
2021/12/19 13:12:30;;;;;;;6.03;2.50;;;;;;;;;;5090242;28;20078;-74
2021/12/19 13:14:56;;;;;;;7.93;2.03;;;;;;;;;;5088573;28;20044;-74
2021/12/19 13:17:25;;;;;;;6.50;1.67;;;;;;;;;;5089653;28;20058;-75
2021/12/19 13:19:53;;;;;;;6.65;2.55;;;;;;;;;;5089911;28;20051;-75
2021/12/19 13:22:25;;;;;;;9.30;1.92;;;;;;;;;;5089154;28;20051;-74
2021/12/19 13:24:53;;;;;;;6.38;2.15;;;;;;;;;;5088852;28;20101;-73
2021/12/19 13:27:30;;;;;;;13.55;2.25;;;;;;;;;;5089430;28;20052;-74
2021/12/19 13:29:58;;;;;;;7.68;1.95;;;;;;;;;;5088279;28;20090;-74
2021/12/19 13:32:27;;;;;;;5.60;1.88;;;;;;;;;;5090249;28;20139;-73
2021/12/19 13:34:53;;;;;;;5.35;1.50;;;;;;;;;;5090090;28;20127;-74
2021/12/19 13:37:20;;;;;;;4.60;1.65;;;;;;;;;;5089445;28;20040;-74
2021/12/19 13:39:58;;;;;;;5.43;2.17;;;;;;;;;;5090814;28;20083;-75
2021/12/19 13:42:36;;;;;;;4.10;1.83;;;;;;;;;;5089352;28;20367;-74
2021/12/19 13:45:03;;;;;;;6.10;2.20;;;;;;;;;;5090355;28;20036;-74
2021/12/19 13:47:29;;;;;;;5.63;1.65;;;;;;;;;;5089376;28;20105;-74
2021/12/19 13:49:56;;;;;;;4.88;1.83;;;;;;;;;;5090602;28;20095;-74
2021/12/19 13:52:22;;;;;;;5.70;1.50;;;;;;;;;;5090592;28;20044;-74
2021/12/19 13:54:49;;;;;;;5.68;1.73;;;;;;;;;;5089873;28;20097;-75
2021/12/19 13:57:19;;;;;;;4.45;1.70;;;;;;;;;;5090348;28;20040;-75
2021/12/19 13:59:45;;;;;;;5.15;1.58;;;;;;;;;;5090000;28;20059;-75
2021/12/19 14:02:11;;;;;;;4.10;1.80;;;;;;;;;;5090284;28;20040;-74
2021/12/19 14:04:37;;;;;;;5.78;1.80;;;;;;;;;;5071229;28;20044;-73
2021/12/19 14:07:10;;;;;;;8.65;2.08;;;;;;;;;;5089724;28;20126;-75
2021/12/19 14:09:43;;;;;;;5.93;1.92;;;;;;;;;;5089260;28;20486;-73
2021/12/19 14:12:23;;;;;;;4.53;1.55;;;;;;;;;;5089542;28;20150;-75
2021/12/19 14:14:49;;;;;;;;;;;;;;;;;;5088930;28;20048;-75
2021/12/19 14:17:15;;;;;;;5.85;1.90;;;;;;;;;;5089870;28;20413;-74
2021/12/19 14:19:42;;;;;;;7.15;2.15;;;;;;;;;;5088148;28;20161;-74
2021/12/19 14:22:08;;;;;;;5.97;2.10;;;;;;;;;;5088449;28;20521;-74
2021/12/19 14:24:38;;;;;;;4.80;1.60;;;;;;;;;;5089331;28;20040;-74
2021/12/19 14:27:14;;;;;;;4.32;1.70;;;;;;;;;;5088765;28;20055;-73
2021/12/19 14:29:41;;;;;;;7.18;1.60;;;;;;;;;;5088129;28;20142;-77
2021/12/19 14:32:21;;;;;;;5.63;1.50;;;;;;;;;;5088533;28;20044;-72
2021/12/19 14:34:50;;;;;;;8.02;2.08;;;;;;;;;;5088961;28;20402;-73
2021/12/19 14:37:22;;;;;;;4.93;2.22;;;;;;;;;;5088459;28;20044;-75
2021/12/19 14:40:02;;;;;;;5.43;1.90;;;;;;;;;;5085899;28;20055;-74
2021/12/19 14:42:29;;;;;;;6.88;2.22;;;;;;;;;;5071192;28;20105;-72
2021/12/19 14:44:56;;;;;;;5.43;1.65;;;;;;;;;;5089924;28;20410;-74
2021/12/19 14:47:41;;;;;;;5.70;1.70;;;;;;;;;;5089515;28;20090;-74
2021/12/19 14:50:11;;;;;;;3.78;1.40;;;;;;;;;;5088561;28;20104;-72
2021/12/19 14:52:37;;;;;;;3.55;1.58;;;;;;;;;;5088933;28;21046;-73
2021/12/19 14:55:11;;;;;;;5.57;1.45;;;;;;;;;;5089593;28;20447;-73
2021/12/19 14:57:37;;;;;;;5.18;1.35;;;;;;;;;;5089748;28;20044;-72
2021/12/19 15:00:05;;;;;;;6.00;1.95;;;;;;;;;;5088242;28;20417;-73
2021/12/19 15:02:31;;;;;;;4.38;1.30;;;;;;;;;;5087637;28;20066;-73
2021/12/19 15:04:58;;;;;;;5.15;1.63;;;;;;;;;;5089332;28;20048;-73
2021/12/19 15:07:26;;;;;;;5.18;1.55;;;;;;;;;;5089188;28;20055;-73
2021/12/19 15:09:52;;;;;;;5.10;1.50;;;;;;;;;;5087462;28;20512;-72
2021/12/19 15:12:18;;;;;;;5.38;1.73;;;;;;;;;;5088101;28;20064;-73
2021/12/19 15:14:45;;;;;;;5.65;1.33;;;;;;;;;;5070852;28;20056;-75
2021/12/19 15:17:11;;;;;;;4.57;1.30;;;;;;;;;;5087793;28;20147;-73
2021/12/19 15:19:37;;;;;;;5.65;1.88;;;;;;;;;;5088412;28;20365;-73
2021/12/19 15:22:03;;;;;;;5.65;1.50;;;;;;;;;;5088140;28;20052;-73
2021/12/19 15:24:29;;;;;;;4.22;1.50;;;;;;;;;;5088999;28;20052;-74
2021/12/19 15:26:55;;;;;;;5.10;1.35;;;;;;;;;;5088264;28;20422;-72
2021/12/19 15:29:21;;;;;;;5.50;1.80;;;;;;;;;;5088149;28;20044;-73
2021/12/19 15:31:50;;;;;;;3.38;1.13;;;;;;;;;;5088598;28;20418;-73
2021/12/19 15:34:16;;;;;;;3.25;1.23;;;;;;;;;;5088225;28;20527;-72
2021/12/19 15:36:42;;;;;;;5.75;1.52;;;;;;;;;;5089646;28;20044;-74
2021/12/19 15:39:09;;;;;;;4.22;1.40;;;;;;;;;;5092242;28;20044;-74
2021/12/19 15:41:35;;;;;;;4.28;1.38;;;;;;;;;;5092417;28;20517;-73
2021/12/19 15:44:02;;;;;;;5.40;1.30;;;;;;;;;;5090828;28;20350;-73
2021/12/19 15:46:28;;;;;;;4.47;1.20;;;;;;;;;;5092345;28;20520;-74
2021/12/19 15:48:56;;;;;;;3.80;1.20;;;;;;;;;;5092428;28;20048;-73
2021/12/19 15:51:22;;;;;;;3.90;1.35;;;;;;;;;;5091805;28;20519;-74
2021/12/19 15:53:51;;;;;;;4.00;1.20;;;;;;;;;;5090486;28;20052;-74
2021/12/19 15:56:17;;;;;;;3.55;1.10;;;;;;;;;;5090661;28;20758;-73
2021/12/19 15:58:43;;;;;;;4.15;1.42;;;;;;;;;;5091759;28;20048;-73